Time;durP1;ratioP1;P1;durP2;ratioP2;P2;SDS_P1;SDS_P2;PMS_P1;PMS_P2;Temp;Humidity;BMP_temperature;BMP_pressure;BME280_temperature;BME280_humidity;BME280_pressure;Samples;Min_cycle;Max_cycle;Signal;HPM_P1;HPM_P2
2022/08/10 00:01:21;;;;;;;7.35;4.50;;;15.70;99.90;;;;;;5032443;28;20049;-61
2022/08/10 00:03:46;;;;;;;5.28;4.20;;;15.60;99.90;;;;;;5032638;28;20033;-63
2022/08/10 00:06:12;;;;;;;9.73;4.22;;;16.30;99.90;;;;;;5031605;28;20481;-61
2022/08/10 00:08:38;;;;;;;10.10;4.50;;;15.90;99.90;;;;;;5032574;28;20041;-61
2022/08/10 00:11:04;;;;;;;7.82;4.65;;;15.70;99.90;;;;;;5032482;28;20120;-60
2022/08/10 00:13:30;;;;;;;6.75;4.95;;;;;;;;;;5032777;28;20567;-59
2022/08/10 00:15:56;;;;;;;7.80;5.38;;;15.70;99.90;;;;;;5032210;28;20046;-59
2022/08/10 00:18:26;;;;;;;8.23;4.90;;;16.00;99.90;;;;;;5032462;28;20068;-57
2022/08/10 00:20:52;;;;;;;10.05;5.00;;;15.90;99.90;;;;;;5031801;28;20038;-58
2022/08/10 00:23:18;;;;;;;7.72;5.10;;;15.80;99.90;;;;;;5032187;28;20056;-57
2022/08/10 00:25:44;;;;;;;6.63;5.10;;;16.20;99.90;;;;;;5032306;28;20042;-57
2022/08/10 00:28:09;;;;;;;8.38;5.43;;;15.80;99.90;;;;;;5032041;28;20123;-57
2022/08/10 00:30:35;;;;;;;6.75;5.10;;;15.80;99.90;;;;;;5031907;28;20046;-57
2022/08/10 00:33:01;;;;;;;8.77;5.60;;;16.00;99.90;;;;;;5031845;28;20049;-57
2022/08/10 00:35:27;;;;;;;7.88;5.50;;;15.70;99.90;;;;;;5032091;28;20497;-57
2022/08/10 00:37:52;;;;;;;11.10;6.10;;;16.00;99.90;;;;;;5032134;28;20033;-57
2022/08/10 00:40:18;;;;;;;6.80;5.82;;;15.70;99.90;;;;;;5031523;28;20181;-57
2022/08/10 00:42:44;;;;;;;7.53;6.10;;;16.00;99.90;;;;;;5031681;28;20037;-59
2022/08/10 00:45:09;;;;;;;7.72;5.80;;;15.90;99.90;;;;;;5032280;28;20045;-59
2022/08/10 00:47:35;;;;;;;11.38;6.05;;;15.80;99.90;;;;;;5030691;28;20041;-59
2022/08/10 00:50:02;;;;;;;9.27;5.80;;;18.60;99.90;;;;;;5031340;28;20048;-59
2022/08/10 00:52:29;;;;;;;7.00;5.80;;;15.90;99.90;;;;;;5031603;28;20038;-59
2022/08/10 00:54:56;;;;;;;10.27;6.05;;;15.80;99.90;;;;;;5031705;28;20044;-59
2022/08/10 00:57:24;;;;;;;10.27;6.00;;;15.70;99.90;;;;;;5031236;28;20120;-57
2022/08/10 00:59:59;;;;;;;7.28;6.25;;;15.60;99.90;;;;;;5031821;28;20119;-59
2022/08/10 01:02:26;;;;;;;8.05;6.28;;;16.40;99.90;;;;;;5113724;22;20511;-57
2022/08/10 01:04:52;;;;;;;9.57;5.78;;;15.50;99.90;;;;;;5031478;28;20068;-58
2022/08/10 01:07:40;;;;;;;8.52;6.32;;;15.70;99.90;;;;;;5031441;28;20042;-58
2022/08/10 01:10:19;;;;;;;8.63;6.82;;;15.70;99.90;;;;;;5031311;28;20048;-58
2022/08/10 01:13:03;;;;;;;12.32;6.95;;;15.00;99.90;;;;;;5031507;28;20480;-58
2022/08/10 01:15:41;;;;;;;9.98;6.97;;;15.60;99.90;;;;;;5013640;28;20492;-58
2022/08/10 01:18:27;;;;;;;9.10;6.63;;;15.60;99.90;;;;;;5030488;28;20515;-58
2022/08/10 01:21:36;;;;;;;9.98;6.70;;;15.60;99.90;;;;;;5031387;28;20489;-58
2022/08/10 01:24:01;;;;;;;9.02;6.35;;;15.60;99.90;;;;;;5031771;28;20041;-58
2022/08/10 01:26:48;;;;;;;9.52;6.82;;;15.40;99.90;;;;;;5031003;28;20539;-58
2022/08/10 01:29:34;;;;;;;8.23;6.90;;;15.60;99.90;;;;;;5031391;28;20069;-57
2022/08/10 01:32:04;;;;;;;12.02;7.45;;;15.80;99.90;;;;;;5013787;28;20367;-57
2022/08/10 01:34:39;;;;;;;9.43;6.63;;;15.50;99.90;;;;;;5013423;28;20556;-58
2022/08/10 01:37:11;;;;;;;10.15;7.53;;;15.50;99.90;;;;;;5030912;28;20136;-58
2022/08/10 01:39:42;;;;;;;11.88;7.20;;;15.50;99.90;;;;;;5031506;28;20071;-58
2022/08/10 01:42:15;;;;;;;9.82;7.22;;;15.80;99.90;;;;;;5031358;28;20120;-58
2022/08/10 01:44:58;;;;;;;12.00;7.97;;;15.50;99.90;;;;;;5031653;28;20041;-58
2022/08/10 01:50:27;;;;;;;11.05;7.90;;;15.50;99.90;;;;;;5030931;28;20046;-58
2022/08/10 01:52:59;;;;;;;10.68;8.15;;;16.00;99.90;;;;;;5031345;28;20049;-58
2022/08/10 01:55:29;;;;;;;11.70;8.63;;;15.40;99.90;;;;;;5031362;28;20049;-58
2022/08/10 01:57:57;;;;;;;13.15;8.75;;;15.50;99.90;;;;;;5031155;28;20050;-58
2022/08/10 02:00:24;;;;;;;11.57;8.65;;;15.50;99.90;;;;;;5031079;28;20044;-58
2022/08/10 02:02:52;;;;;;;13.45;9.07;;;15.50;99.90;;;;;;5030492;28;20037;-58
2022/08/10 02:05:22;;;;;;;12.82;8.93;;;17.90;99.90;;;;;;5030944;28;20041;-58
2022/08/10 02:07:49;;;;;;;12.75;9.23;;;15.40;99.90;;;;;;5030876;28;20397;-58
2022/08/10 02:10:18;;;;;;;14.15;9.57;;;15.40;99.90;;;;;;5045997;28;20116;-58
2022/08/10 02:12:46;;;;;;;12.05;9.48;;;15.40;99.90;;;;;;5050488;28;20547;-58
2022/08/10 02:15:19;;;;;;;12.05;9.52;;;15.40;99.90;;;;;;5032905;28;20389;-58
2022/08/10 02:17:52;;;;;;;14.63;10.00;;;15.50;99.90;;;;;;5032659;28;20045;-58
2022/08/10 02:20:21;;;;;;;15.32;10.40;;;15.50;99.90;;;;;;5049039;28;20082;-58
2022/08/10 02:22:56;;;;;;;15.40;10.02;;;15.20;99.90;;;;;;5050540;28;20047;-58
2022/08/10 02:25:24;;;;;;;14.10;10.50;;;15.30;99.90;;;;;;5050609;28;20041;-58
2022/08/10 02:27:52;;;;;;;14.93;10.40;;;15.30;99.90;;;;;;5033399;28;20045;-58
2022/08/10 02:30:22;;;;;;;18.88;10.50;;;16.10;99.90;;;;;;5054205;28;20029;-58
2022/08/10 02:32:50;;;;;;;16.70;11.07;;;15.30;99.90;;;;;;5036406;28;20065;-58
2022/08/10 02:35:17;;;;;;;17.17;10.90;;;15.00;99.90;;;;;;5054128;28;20048;-58
2022/08/10 02:37:47;;;;;;;16.98;10.68;;;15.30;99.90;;;;;;5054553;28;20081;-58
2022/08/10 02:40:15;;;;;;;15.15;10.48;;;15.60;99.90;;;;;;5054461;28;20029;-58
2022/08/10 02:42:59;;;;;;;14.77;9.90;;;15.20;99.90;;;;;;5054116;28;20056;-58
2022/08/10 02:45:37;;;;;;;13.70;10.27;;;15.30;99.90;;;;;;5053981;28;20443;-58
2022/08/10 02:48:12;;;;;;;13.75;10.68;;;15.20;99.90;;;;;;5053796;28;20120;-58
2022/08/10 02:50:40;;;;;;;15.83;10.67;;;13.90;99.90;;;;;;5053767;28;20036;-59
2022/08/10 02:53:21;;;;;;;18.00;11.38;;;14.80;99.90;;;;;;5053522;28;20120;-58
2022/08/10 02:56:13;;;;;;;18.13;11.02;;;15.20;99.90;;;;;;5053761;28;20198;-59
2022/08/10 02:58:44;;;;;;;16.00;11.05;;;15.20;99.90;;;;;;5053690;28;20063;-58
2022/08/10 03:01:14;;;;;;;14.13;10.45;;;15.10;99.90;;;;;;5053251;28;20053;-58
2022/08/10 03:03:51;;;;;;;15.35;11.38;;;15.10;99.90;;;;;;5053290;28;20049;-58
2022/08/10 03:06:20;;;;;;;14.45;10.98;;;15.10;99.90;;;;;;5053834;28;20052;-58
2022/08/10 03:08:49;;;;;;;18.95;12.02;;;15.20;99.90;;;;;;5053382;28;20080;-58
2022/08/10 03:11:28;;;;;;;15.90;11.85;;;15.10;99.90;;;;;;5053341;28;20076;-59
2022/08/10 03:13:57;;;;;;;14.85;11.23;;;14.80;99.90;;;;;;5053317;28;20048;-61
2022/08/10 03:16:25;;;;;;;18.38;11.70;;;15.00;99.90;;;;;;5053474;28;20426;-61
2022/08/10 03:18:53;;;;;;;16.42;11.70;;;14.80;99.90;;;;;;5053393;28;20171;-59
2022/08/10 03:21:20;;;;;;;16.73;11.48;;;15.00;99.90;;;;;;5053135;28;20108;-58
2022/08/10 03:23:48;;;;;;;19.98;12.13;;;14.90;99.90;;;;;;5053048;28;20110;-59
2022/08/10 03:26:15;;;;;;;17.95;12.73;;;15.60;99.90;;;;;;5053025;28;20083;-59
2022/08/10 03:28:42;;;;;;;18.88;12.77;;;14.80;99.90;;;;;;5053185;28;20041;-59
2022/08/10 03:31:08;;;;;;;19.02;12.00;;;14.90;99.90;;;;;;5052857;28;20513;-59
2022/08/10 03:33:38;;;;;;;18.10;12.05;;;14.90;99.90;;;;;;5053287;28;20037;-58
2022/08/10 03:36:06;;;;;;;19.00;12.30;;;14.80;99.90;;;;;;5052866;28;20032;-61
2022/08/10 03:38:33;;;;;;;20.27;12.00;;;14.90;99.90;;;;;;5053368;28;20079;-63
2022/08/10 03:41:02;;;;;;;18.15;11.85;;;14.90;99.90;;;;;;5051685;28;20041;-59
2022/08/10 03:43:28;;;;;;;17.33;11.85;;;14.30;99.90;;;;;;5052824;28;20037;-59
2022/08/10 03:45:59;;;;;;;20.08;12.00;;;14.70;99.90;;;;;;5034931;28;20488;-59
2022/08/10 03:48:27;;;;;;;18.08;12.65;;;14.80;99.90;;;;;;5052758;28;20095;-59
2022/08/10 03:50:55;;;;;;;19.00;13.10;;;14.70;99.90;;;;;;5053176;28;20076;-59
2022/08/10 03:53:22;;;;;;;19.17;12.75;;;14.80;99.90;;;;;;5052498;28;20131;-60
2022/08/10 03:55:49;;;;;;;18.98;12.75;;;14.70;99.90;;;;;;5052500;28;20091;-57
2022/08/10 03:58:15;;;;;;;19.52;13.15;;;14.70;99.90;;;;;;5052338;28;20083;-58
2022/08/10 04:00:41;;;;;;;19.27;13.23;;;14.70;99.90;;;;;;5052558;28;20072;-58
2022/08/10 04:03:08;;;;;;;18.35;12.57;;;13.80;99.90;;;;;;5052357;28;20037;-59
2022/08/10 04:05:34;;;;;;;22.08;13.02;;;14.60;99.90;;;;;;5052255;28;20463;-58
2022/08/10 04:08:01;;;;;;;21.30;13.32;;;15.40;99.90;;;;;;5052072;28;20052;-58
2022/08/10 04:10:28;;;;;;;18.67;13.15;;;14.50;99.90;;;;;;5034172;28;20506;-58
2022/08/10 04:12:54;;;;;;;17.48;12.80;;;14.50;99.90;;;;;;5051139;28;20037;-58
2022/08/10 04:15:20;;;;;;;19.42;13.32;;;14.40;99.90;;;;;;5050993;28;20086;-58
2022/08/10 04:17:46;;;;;;;18.77;13.10;;;14.60;99.90;;;;;;5051035;28;20045;-58
2022/08/10 04:20:18;;;;;;;21.27;13.30;;;14.60;99.90;;;;;;5033270;28;20562;-58
2022/08/10 04:22:47;;;;;;;17.77;13.02;;;14.50;99.90;;;;;;5050856;28;20520;-58
2022/08/10 04:25:15;;;;;;;21.38;13.13;;;15.40;99.90;;;;;;5051226;28;20072;-58
2022/08/10 04:27:41;;;;;;;19.63;13.18;;;14.60;99.90;;;;;;5034303;28;20049;-58
2022/08/10 04:30:07;;;;;;;19.83;13.13;;;14.50;99.90;;;;;;5051802;28;20064;-58
2022/08/10 04:32:35;;;;;;;20.92;13.45;;;14.40;99.90;;;;;;5050661;28;20037;-58
2022/08/10 04:35:05;;;;;;;19.35;13.38;;;14.70;99.90;;;;;;5051603;28;20077;-58
2022/08/10 04:37:36;;;;;;;19.25;13.15;;;14.50;99.90;;;;;;5051730;28;20041;-58
2022/08/10 04:40:03;;;;;;;24.15;13.45;;;14.90;99.90;;;;;;5051748;28;20131;-60
2022/08/10 04:42:30;;;;;;;19.00;13.43;;;14.30;99.90;;;;;;5051981;28;20178;-58
2022/08/10 04:44:56;;;;;;;18.08;13.10;;;14.90;99.90;;;;;;5050296;28;20103;-58
2022/08/10 04:47:22;;;;;;;24.17;14.35;;;14.60;99.90;;;;;;5051539;28;20513;-58
2022/08/10 04:49:49;;;;;;;21.75;13.35;;;14.50;99.90;;;;;;5051858;28;20040;-58
2022/08/10 04:52:14;;;;;;;20.35;13.93;;;14.90;99.90;;;;;;5051626;28;20045;-58
2022/08/10 04:54:40;;;;;;;19.38;13.68;;;13.90;99.90;;;;;;5051228;28;20048;-58
2022/08/10 04:57:06;;;;;;;20.85;13.35;;;14.30;99.90;;;;;;5051209;28;20040;-57
2022/08/10 04:59:32;;;;;;;18.95;12.93;;;14.60;99.90;;;;;;5051258;28;20080;-59
2022/08/10 05:01:57;;;;;;;19.02;14.00;;;14.50;99.90;;;;;;5051522;28;20480;-59
2022/08/10 05:04:23;;;;;;;17.98;13.32;;;14.50;99.90;;;;;;5051019;28;20548;-58
2022/08/10 05:06:49;;;;;;;20.70;13.88;;;14.40;99.90;;;;;;5051372;28;20049;-58
2022/08/10 05:09:15;;;;;;;19.52;13.20;;;14.90;99.90;;;;;;5051160;28;20385;-58
2022/08/10 05:11:40;;;;;;;18.00;13.18;;;14.60;99.90;;;;;;5051578;28;20068;-58
2022/08/10 05:14:06;;;;;;;20.58;13.43;;;14.80;99.90;;;;;;5051504;28;20033;-58
2022/08/10 05:16:32;;;;;;;17.60;13.27;;;15.90;99.90;;;;;;5051261;28;20124;-60
2022/08/10 05:18:57;;;;;;;20.00;12.45;;;14.70;99.90;;;;;;5050950;28;20033;-58
2022/08/10 05:21:23;;;;;;;12.63;10.35;;;15.50;99.90;;;;;;5051162;28;20393;-58
2022/08/10 05:23:49;;;;;;;14.23;10.43;;;16.50;99.90;;;;;;5051409;28;20120;-58
2022/08/10 05:26:14;;;;;;;11.65;9.40;;;17.60;99.90;;;;;;5050907;28;20170;-58
2022/08/10 05:28:40;;;;;;;17.77;9.13;;;17.60;99.90;;;;;;5050889;28;20040;-58
2022/08/10 05:31:06;;;;;;;11.20;8.50;;;18.40;99.90;;;;;;5051155;28;20071;-61
2022/08/10 05:33:32;;;;;;;11.20;8.55;;;19.30;99.90;;;;;;5033239;28;20463;-61
2022/08/10 05:36:02;;;;;;;10.77;7.85;;;20.70;99.90;;;;;;5050961;28;20040;-62
2022/08/10 05:38:28;;;;;;;8.98;7.40;;;20.80;99.90;;;;;;5051015;28;20072;-61
2022/08/10 05:40:54;;;;;;;8.10;7.20;;;21.50;99.90;;;;;;5032876;28;20044;-62
2022/08/10 05:43:21;;;;;;;8.50;6.60;;;22.20;99.90;;;;;;5051089;28;20044;-62
2022/08/10 05:45:49;;;;;;;9.75;6.80;;;22.90;99.90;;;;;;5050591;28;20059;-61
2022/08/10 05:48:15;;;;;;;11.60;7.18;;;23.50;99.90;;;;;;5050979;28;20041;-60
2022/08/10 05:50:41;;;;;;;10.88;6.15;;;23.80;99.90;;;;;;5050671;28;20033;-60
2022/08/10 05:53:09;;;;;;;8.07;6.45;;;23.90;99.90;;;;;;5050751;28;20480;-61
2022/08/10 05:55:35;;;;;;;9.07;6.43;;;24.20;99.90;;;;;;5050546;28;20125;-61
2022/08/10 05:58:01;;;;;;;10.48;6.25;;;24.60;99.90;;;;;;5050654;28;20055;-61
2022/08/10 06:00:29;;;;;;;12.27;6.05;;;24.50;99.90;;;;;;5050577;28;20547;-61
2022/08/10 06:03:00;;;;;;;8.27;5.97;;;24.50;99.90;;;;;;5051507;28;20501;-61
2022/08/10 06:05:29;;;;;;;7.65;5.20;;;24.50;99.90;;;;;;5054687;28;20049;-61
2022/08/10 06:08:18;;;;;;;8.35;6.03;;;24.20;99.90;;;;;;5054335;28;20611;-61
2022/08/10 06:10:45;;;;;;;10.93;5.38;;;23.90;99.90;;;;;;5054893;28;20389;-61
2022/08/10 06:16:01;;;;;;;7.95;5.60;;;23.20;99.90;;;;;;5054574;28;20063;-61
2022/08/10 06:18:27;;;;;;;7.45;5.50;;;23.30;99.90;;;;;;5037144;28;20098;-61
2022/08/10 06:20:54;;;;;;;7.97;5.70;;;24.00;99.90;;;;;;5036456;28;20045;-61
2022/08/10 06:23:20;;;;;;;7.85;5.45;;;24.80;99.90;;;;;;5054129;28;20036;-60
2022/08/10 06:25:46;;;;;;;6.63;5.25;;;25.70;98.00;;;;;;5054483;28;20157;-61
2022/08/10 06:28:15;;;;;;;7.60;5.20;;;26.50;95.60;;;;;;5054339;28;20546;-60
2022/08/10 06:30:45;;;;;;;7.75;5.00;;;27.20;91.90;;;;;;5054048;28;20048;-62
2022/08/10 06:33:14;;;;;;;8.25;4.65;;;27.70;88.60;;;;;;5054159;28;20098;-62
2022/08/10 06:35:40;;;;;;;9.95;5.35;;;28.20;85.60;;;;;;5054390;28;20400;-62
2022/08/10 06:38:09;;;;;;;11.68;4.72;;;28.50;80.50;;;;;;5054058;28;20071;-62
2022/08/10 06:40:38;;;;;;;6.35;4.47;;;29.00;77.00;;;;;;5054322;28;20097;-62
2022/08/10 06:43:08;;;;;;;8.68;4.72;;;29.50;73.00;;;;;;5053759;28;20116;-62
2022/08/10 06:45:46;;;;;;;7.88;4.65;;;29.60;69.30;;;;;;5053919;28;20033;-61
2022/08/10 06:48:28;;;;;;;10.20;4.72;;;29.70;68.00;;;;;;5036072;28;20079;-61
2022/08/10 06:50:57;;;;;;;6.38;4.55;;;29.70;66.70;;;;;;5054091;28;20381;-61
2022/08/10 06:53:35;;;;;;;7.10;4.38;;;30.20;71.50;;;;;;5047184;28;20049;-61
2022/08/10 06:56:05;;;;;;;6.22;4.20;;;30.20;64.10;;;;;;5037571;28;20079;-62
2022/08/10 06:58:39;;;;;;;8.00;4.07;;;30.40;62.80;;;;;;5052934;28;20045;-62
2022/08/10 07:01:11;;;;;;;8.10;4.25;;;30.60;60.60;;;;;;5052649;28;20037;-62
2022/08/10 07:03:46;;;;;;;10.75;4.25;;;30.70;69.80;;;;;;5031881;28;20041;-62
2022/08/10 07:06:14;;;;;;;7.07;4.18;;;31.00;70.00;;;;;;5032752;28;20076;-62
2022/08/10 07:08:42;;;;;;;7.25;4.10;;;31.20;59.80;;;;;;5033239;28;20431;-62
2022/08/10 07:11:08;;;;;;;7.00;4.38;;;31.40;58.10;;;;;;5032539;28;20042;-62
2022/08/10 07:13:37;;;;;;;7.88;4.00;;;31.70;57.20;;;;;;5033110;28;20167;-62
2022/08/10 07:16:06;;;;;;;7.72;4.45;;;31.70;56.30;;;;;;5032517;28;20049;-61
2022/08/10 07:18:34;;;;;;;7.72;4.10;;;31.60;63.00;;;;;;5033732;28;20507;-62
2022/08/10 07:21:01;;;;;;;9.52;4.15;;;31.40;56.30;;;;;;5033268;28;20489;-61
2022/08/10 07:23:28;;;;;;;6.90;4.50;;;31.60;56.60;;;;;;5033164;28;20052;-61
2022/08/10 07:25:56;;;;;;;6.18;4.20;;;31.70;55.50;;;;;;5032409;28;20382;-61
2022/08/10 07:28:23;;;;;;;5.80;4.20;;;31.60;55.40;;;;;;5033152;28;20050;-61
2022/08/10 07:30:52;;;;;;;6.80;4.25;;;31.40;55.30;;;;;;5032484;28;20053;-61
2022/08/10 07:33:20;;;;;;;6.78;4.60;;;31.30;63.70;;;;;;5032985;28;20041;-61
2022/08/10 07:35:47;;;;;;;6.90;3.95;;;31.00;55.80;;;;;;5033329;28;20041;-57
2022/08/10 07:38:21;;;;;;;7.70;4.40;;;30.80;56.70;;;;;;5032970;28;20038;-58
2022/08/10 07:40:49;;;;;;;7.80;5.10;;;30.50;65.00;;;;;;5033193;28;20455;-59
2022/08/10 07:43:17;;;;;;;6.60;4.30;;;30.40;58.20;;;;;;5031644;28;20049;-58
2022/08/10 07:45:45;;;;;;;11.18;4.55;;;29.90;59.50;;;;;;5032961;28;20033;-57
2022/08/10 07:48:17;;;;;;;7.10;4.22;;;29.30;60.70;;;;;;5033127;28;20076;-59
2022/08/10 07:50:45;;;;;;;7.32;4.40;;;28.80;62.30;;;;;;5032751;28;20370;-59
2022/08/10 07:53:23;;;;;;;9.02;4.30;;;28.60;64.30;;;;;;5032915;28;20041;-58
2022/08/10 07:55:51;;;;;;;6.68;3.80;;;28.10;65.00;;;;;;5032657;28;20041;-58
2022/08/10 07:58:21;;;;;;;7.45;3.90;;;27.20;73.40;;;;;;5032800;28;20048;-58
2022/08/10 08:00:49;;;;;;;9.52;4.35;;;27.20;69.70;;;;;;5032706;28;20041;-59
2022/08/10 08:03:15;;;;;;;5.47;4.00;;;26.80;79.10;;;;;;5034345;28;20374;-59
2022/08/10 08:05:42;;;;;;;8.63;4.35;;;26.60;72.90;;;;;;5052483;28;20049;-60
2022/08/10 08:08:09;;;;;;;5.50;3.63;;;26.50;73.50;;;;;;5052462;28;20029;-57
2022/08/10 08:10:37;;;;;;;9.65;4.20;;;26.60;74.50;;;;;;5052630;28;20488;-57
2022/08/10 08:13:04;;;;;;;7.43;3.75;;;26.60;76.60;;;;;;5052102;28;20055;-58
2022/08/10 08:15:32;;;;;;;6.45;3.58;;;26.70;76.90;;;;;;5034528;28;20122;-61
2022/08/10 08:18:00;;;;;;;9.35;4.10;;;26.60;76.60;;;;;;5052532;28;20381;-59
2022/08/10 08:20:30;;;;;;;8.93;3.60;;;26.40;76.70;;;;;;5052476;28;20174;-60
2022/08/10 08:22:57;;;;;;;9.02;4.35;;;26.40;85.90;;;;;;5052253;28;20041;-58
2022/08/10 08:25:24;;;;;;;9.48;4.03;;;26.00;85.20;;;;;;5051503;28;20046;-58
2022/08/10 08:27:55;;;;;;;6.35;3.97;;;26.20;78.40;;;;;;5051858;28;20037;-59
2022/08/10 08:30:22;;;;;;;10.85;3.50;;;26.20;84.50;;;;;;5052336;28;20388;-58
2022/08/10 08:32:48;;;;;;;10.45;3.85;;;26.20;78.40;;;;;;5052309;28;20056;-58
2022/08/10 08:35:18;;;;;;;8.50;3.42;;;27.20;85.30;;;;;;5033969;28;20041;-58
2022/08/10 08:37:51;;;;;;;8.75;3.78;;;26.40;78.70;;;;;;5033944;28;20392;-58
2022/08/10 08:40:32;;;;;;;6.50;3.40;;;26.50;78.90;;;;;;5051856;28;20436;-59
2022/08/10 08:43:30;;;;;;;5.00;3.10;;;26.40;78.60;;;;;;5051899;28;20037;-58
2022/08/10 08:46:18;;;;;;;8.25;3.30;;;26.30;77.30;;;;;;5034255;28;20048;-58
2022/08/10 08:49:05;;;;;;;8.68;3.13;;;26.10;78.40;;;;;;5033899;28;20075;-58
2022/08/10 08:51:43;;;;;;;6.78;3.10;;;25.90;80.30;;;;;;5051621;28;20463;-58
2022/08/10 08:54:33;;;;;;;5.30;3.22;;;25.90;80.80;;;;;;5051551;28;20072;-59
2022/08/10 08:57:20;;;;;;;7.60;3.78;;;25.90;80.70;;;;;;5051201;28;20499;-59
2022/08/10 09:00:10;;;;;;;5.07;3.00;;;25.80;80.70;;;;;;5051731;28;20041;-59
2022/08/10 09:03:24;;;;;;;4.60;3.08;;;25.90;81.40;;;;;;5051259;28;20041;-63
2022/08/10 09:06:03;;;;;;;7.63;3.33;;;26.00;81.80;;;;;;4990215;28;20048;-68
2022/08/10 09:08:55;;;;;;;6.30;3.50;;;26.20;81.00;;;;;;5051462;28;20037;-60
2022/08/10 09:11:35;;;;;;;12.52;3.17;;;26.20;81.50;;;;;;5033425;28;20051;-60
2022/08/10 09:14:10;;;;;;;9.80;3.30;;;26.30;81.50;;;;;;5050871;28;20389;-60
2022/08/10 09:16:46;;;;;;;;;;;26.40;81.40;;;;;;5051726;28;20033;-60
2022/08/10 09:19:33;;;;;;;7.50;3.30;;;26.40;81.90;;;;;;5051574;28;20092;-57
2022/08/10 09:22:20;;;;;;;10.07;3.90;;;26.50;80.30;;;;;;5051131;28;20067;-60
2022/08/10 09:24:57;;;;;;;5.60;3.22;;;26.50;79.70;;;;;;5051701;28;20072;-58
2022/08/10 09:27:34;;;;;;;6.28;3.50;;;26.50;80.20;;;;;;5051281;28;20044;-59
2022/08/10 09:30:05;;;;;;;6.82;4.00;;;26.40;79.20;;;;;;5051333;28;20526;-59
2022/08/10 09:32:44;;;;;;;9.73;3.50;;;26.30;80.00;;;;;;5051544;28;20485;-58
2022/08/10 09:35:17;;;;;;;6.97;3.30;;;26.50;80.70;;;;;;5051985;28;20069;-59
2022/08/10 09:38:04;;;;;;;6.43;3.53;;;26.70;79.90;;;;;;5034572;28;20130;-59
2022/08/10 09:40:56;;;;;;;11.40;4.03;;;26.60;78.10;;;;;;5055699;28;20059;-59
2022/08/10 09:43:49;;;;;;;8.07;3.33;;;26.80;76.60;;;;;;5054919;28;20095;-59
2022/08/10 09:46:32;;;;;;;6.00;2.47;;;27.00;74.50;;;;;;5055573;28;20041;-59
2022/08/10 09:49:14;;;;;;;5.80;2.90;;;27.00;74.00;;;;;;5055225;28;20049;-59
2022/08/10 09:51:55;;;;;;;7.82;3.05;;;27.00;74.00;;;;;;5055488;28;20048;-59
2022/08/10 09:54:37;;;;;;;5.85;3.17;;;27.10;74.60;;;;;;5054960;28;20397;-59
2022/08/10 09:57:14;;;;;;;9.05;2.90;;;27.20;74.20;;;;;;5055205;28;20044;-59
2022/08/10 09:59:53;;;;;;;5.50;2.67;;;27.30;74.50;;;;;;5037459;28;20202;-59
2022/08/10 10:02:38;;;;;;;9.13;2.95;;;27.40;72.80;;;;;;5054825;28;20052;-59
2022/08/10 10:05:32;;;;;;;6.93;2.20;;;27.50;71.20;;;;;;5054756;28;20056;-59
2022/08/10 10:08:45;;;;;;;4.75;2.60;;;27.50;66.90;;;;;;5054633;28;20044;-59
2022/08/10 10:11:23;;;;;;;6.18;2.53;;;27.30;70.00;;;;;;5047517;28;20056;-59
2022/08/10 10:14:10;;;;;;;4.40;2.20;;;27.30;71.90;;;;;;5054482;28;20041;-59
2022/08/10 10:16:37;;;;;;;4.90;2.60;;;27.40;70.40;;;;;;5054240;28;20103;-60
2022/08/10 10:19:21;;;;;;;5.90;2.50;;;27.40;69.00;;;;;;5054799;28;20176;-59
2022/08/10 10:22:20;;;;;;;7.70;2.20;;;27.30;68.20;;;;;;5054667;28;20037;-59
2022/08/10 10:25:04;;;;;;;6.32;2.10;;;27.20;68.20;;;;;;5054309;28;20440;-59
2022/08/10 10:27:33;;;;;;;4.88;2.38;;;27.50;67.20;;;;;;5036344;28;20128;-59
2022/08/10 10:30:08;;;;;;;7.68;2.20;;;27.50;66.60;;;;;;5053585;28;20053;-59
2022/08/10 10:32:49;;;;;;;4.63;2.00;;;27.60;66.30;;;;;;5054271;28;20170;-59
2022/08/10 10:35:21;;;;;;;2.83;1.90;;;27.60;64.30;;;;;;5036394;28;20179;-59
2022/08/10 10:37:50;;;;;;;9.00;2.00;;;27.50;64.80;;;;;;5054299;28;20053;-59
2022/08/10 10:40:17;;;;;;;5.93;1.75;;;27.50;65.00;;;;;;5054277;28;20045;-59
2022/08/10 10:42:55;;;;;;;8.85;1.88;;;27.60;63.80;;;;;;5035710;28;20041;-59
2022/08/10 10:45:46;;;;;;;3.88;2.00;;;27.80;63.00;;;;;;5054014;28;20083;-59
2022/08/10 10:48:21;;;;;;;9.20;2.22;;;27.90;62.50;;;;;;5053854;28;20033;-59
2022/08/10 10:51:15;;;;;;;5.05;2.08;;;27.90;62.20;;;;;;5054035;28;20037;-59
2022/08/10 10:54:03;;;;;;;5.65;2.20;;;27.90;63.00;;;;;;5053922;28;20037;-60
2022/08/10 10:57:11;;;;;;;4.43;2.10;;;27.90;62.00;;;;;;5053516;28;20433;-60
2022/08/10 10:59:55;;;;;;;8.38;2.40;;;27.90;62.80;;;;;;5053233;28;20044;-59
2022/08/10 11:02:37;;;;;;;3.15;1.98;;;27.70;62.80;;;;;;5053397;28;20412;-60
2022/08/10 11:05:21;;;;;;;3.95;2.10;;;27.80;65.10;;;;;;5053302;28;20055;-60
2022/08/10 11:08:00;;;;;;;8.30;2.15;;;28.10;65.60;;;;;;5053105;28;20392;-59
2022/08/10 11:10:37;;;;;;;5.05;1.80;;;28.20;62.80;;;;;;5047084;28;20063;-57
2022/08/10 11:13:11;;;;;;;10.48;2.15;;;28.40;64.70;;;;;;5051318;28;20047;-59
2022/08/10 11:15:52;;;;;;;4.05;1.70;;;28.60;61.50;;;;;;5052119;28;20051;-59
2022/08/10 11:18:26;;;;;;;3.47;1.80;;;28.50;60.60;;;;;;5052579;28;20377;-59
2022/08/10 11:21:26;;;;;;;3.03;1.80;;;28.40;58.80;;;;;;5051976;28;20127;-59
2022/08/10 11:24:31;;;;;;;3.25;1.77;;;28.30;58.20;;;;;;5052500;28;20401;-59
2022/08/10 11:27:12;;;;;;;4.40;2.00;;;28.40;60.40;;;;;;5034543;28;20063;-59
2022/08/10 11:30:02;;;;;;;3.80;1.70;;;28.40;59.30;;;;;;5052388;28;20067;-59
2022/08/10 11:33:06;;;;;;;3.65;1.70;;;28.30;58.10;;;;;;5052755;28;20124;-59
2022/08/10 11:35:43;;;;;;;3.13;1.80;;;28.30;57.00;;;;;;4955332;28;20117;-59
2022/08/10 11:38:21;;;;;;;3.53;1.60;;;28.50;58.10;;;;;;4970896;28;20813;-59
2022/08/10 11:41:03;;;;;;;7.40;1.70;;;28.50;57.30;;;;;;4971163;28;20138;-59
2022/08/10 11:43:34;;;;;;;3.67;1.75;;;28.50;55.10;;;;;;4971311;28;20039;-59
2022/08/10 11:46:13;;;;;;;5.97;1.70;;;28.50;56.60;;;;;;4970654;28;20050;-59
2022/08/10 11:48:53;;;;;;;3.97;1.70;;;28.40;56.60;;;;;;4971334;28;20042;-59
2022/08/10 11:51:25;;;;;;;6.20;2.00;;;28.30;55.80;;;;;;4970761;28;20082;-58
2022/08/10 11:54:06;;;;;;;4.22;1.85;;;28.30;55.80;;;;;;4970317;28;20524;-58
2022/08/10 11:56:42;;;;;;;5.20;1.83;;;28.40;56.30;;;;;;4954249;28;20511;-58
2022/08/10 12:01:55;;;;;;;9.38;1.90;;;28.40;56.40;;;;;;4969761;28;20050;-58
2022/08/10 12:04:22;;;;;;;5.55;1.90;;;28.60;55.50;;;;;;4970576;28;20043;-58
2022/08/10 12:06:50;;;;;;;3.83;1.80;;;28.70;55.00;;;;;;4970330;28;20411;-58
2022/08/10 12:09:17;;;;;;;6.13;1.70;;;28.90;54.90;;;;;;4983078;28;20082;-59
2022/08/10 12:11:43;;;;;;;7.50;1.90;;;29.00;54.90;;;;;;5038676;28;20064;-58
2022/08/10 12:14:23;;;;;;;7.40;1.98;;;29.10;54.60;;;;;;5051282;28;20459;-57
2022/08/10 12:17:15;;;;;;;4.93;1.90;;;29.10;54.10;;;;;;5050885;28;20353;-59
2022/08/10 12:19:56;;;;;;;5.38;2.00;;;29.20;53.80;;;;;;5051826;28;20088;-58
2022/08/10 12:22:29;;;;;;;5.05;1.70;;;29.20;53.10;;;;;;5052185;28;20373;-59
2022/08/10 12:25:01;;;;;;;3.90;1.92;;;29.20;53.70;;;;;;5052125;28;20045;-59
2022/08/10 12:27:47;;;;;;;5.40;1.75;;;29.10;53.40;;;;;;5052360;28;20040;-60
2022/08/10 12:30:19;;;;;;;5.60;1.95;;;29.30;55.00;;;;;;5052133;28;20045;-59
2022/08/10 12:33:05;;;;;;;5.38;2.15;;;29.50;54.10;;;;;;5050739;28;20045;-60
2022/08/10 12:36:13;;;;;;;5.55;1.98;;;29.50;54.10;;;;;;5052142;28;20291;-60
2022/08/10 12:39:03;;;;;;;5.57;2.08;;;29.60;53.50;;;;;;5051812;28;20056;-59
2022/08/10 12:41:38;;;;;;;4.43;1.92;;;29.60;53.90;;;;;;5052012;28;20480;-59
2022/08/10 12:44:52;;;;;;;3.88;1.88;;;29.60;53.80;;;;;;5051562;28;20416;-60
2022/08/10 12:48:00;;;;;;;5.68;1.90;;;29.70;53.00;;;;;;4990031;28;20046;-61
2022/08/10 12:50:48;;;;;;;6.95;1.80;;;29.70;52.00;;;;;;4932120;29;20492;-60
2022/08/10 12:53:50;;;;;;;6.38;1.75;;;29.70;51.60;;;;;;4916246;29;20051;-60
2022/08/10 12:56:42;;;;;;;2.97;1.85;;;29.80;51.00;;;;;;4932046;29;20157;-59
2022/08/10 12:59:11;;;;;;;3.67;1.80;;;29.80;51.40;;;;;;4932228;29;20046;-60
2022/08/10 13:01:38;;;;;;;5.78;1.80;;;29.90;51.50;;;;;;4931520;29;20048;-61
2022/08/10 13:04:08;;;;;;;2.90;1.70;;;29.80;51.20;;;;;;4927521;29;20059;-59
2022/08/10 13:06:46;;;;;;;5.65;1.92;;;29.80;51.40;;;;;;4928728;29;20821;-62
2022/08/10 13:09:13;;;;;;;4.35;1.70;;;29.90;50.90;;;;;;4931893;29;20055;-62
2022/08/10 13:12:02;;;;;;;4.68;1.90;;;29.90;51.20;;;;;;4931946;29;20102;-60
2022/08/10 13:14:37;;;;;;;3.40;1.98;;;29.80;50.50;;;;;;4931686;29;20123;-63
2022/08/10 13:17:06;;;;;;;3.35;1.80;;;29.80;51.20;;;;;;4931540;29;20105;-61
2022/08/10 13:19:39;;;;;;;3.95;1.80;;;29.90;51.80;;;;;;4930689;29;20043;-62
2022/08/10 13:22:05;;;;;;;5.30;1.80;;;30.10;52.10;;;;;;5020634;28;20057;-62